createdAt,value
2019-03-05T00:00:32.505Z,6.22
2019-03-05T00:05:36.544Z,6.42
2019-03-05T00:10:40.700Z,6.51
2019-03-05T00:15:44.829Z,6.47
2019-03-05T00:20:48.913Z,6.55
2019-03-05T00:25:52.924Z,6.56
2019-03-05T00:31:07.627Z,6.58
2019-03-05T00:36:21.924Z,6.67
2019-03-05T00:42:12.937Z,6.65
2019-03-05T00:47:52.120Z,6.63
2019-03-05T00:53:05.094Z,6.64
2019-03-05T00:58:26.302Z,6.63
2019-03-05T01:03:58.105Z,6.69
2019-03-05T01:09:04.176Z,6.55
2019-03-05T01:14:08.934Z,6.37
2019-03-05T01:19:13.005Z,6.12
2019-03-05T01:24:17.047Z,5.94
2019-03-05T01:29:21.076Z,6.10
2019-03-05T01:34:25.753Z,6.10
2019-03-05T01:39:29.782Z,5.91
2019-03-05T01:44:34.053Z,5.61
2019-03-05T01:49:38.180Z,5.49
2019-03-05T01:54:42.585Z,5.18
2019-03-05T01:59:46.602Z,5.31
2019-03-05T02:04:50.616Z,5.25
2019-03-05T02:09:55.153Z,5.07
2019-03-05T02:14:59.562Z,4.94
2019-03-05T02:20:04.886Z,4.83
2019-03-05T02:25:18.280Z,4.77
2019-03-05T02:30:33.365Z,4.84
2019-03-05T02:35:58.237Z,4.87
2019-03-05T02:41:35.707Z,4.79
2019-03-05T02:47:10.899Z,4.78
2019-03-05T02:52:40.392Z,4.68
2019-03-05T02:57:42.684Z,4.85
2019-03-05T03:02:46.699Z,5.29
2019-03-05T03:07:51.077Z,5.55
2019-03-05T03:12:55.260Z,5.65
2019-03-05T03:17:59.334Z,5.92
2019-03-05T03:23:03.736Z,5.94
2019-03-05T03:28:07.744Z,5.93
2019-03-05T03:33:11.803Z,6.06
2019-03-05T03:38:15.857Z,6.10
2019-03-05T03:43:19.955Z,6.18
2019-03-05T03:48:24.280Z,6.18
2019-03-05T03:53:28.330Z,6.37
2019-03-05T03:58:32.777Z,6.35
2019-03-05T04:03:36.816Z,6.33
2019-03-05T04:08:40.894Z,6.22
2019-03-05T04:13:45.234Z,6.28
2019-03-05T04:18:49.309Z,6.31
2019-03-05T04:23:53.408Z,6.35
2019-03-05T04:28:57.456Z,6.37
2019-03-05T04:34:01.541Z,6.29
2019-03-05T04:39:08.927Z,6.38
2019-03-05T04:44:12.957Z,6.38
2019-03-05T04:49:16.996Z,6.36
2019-03-05T04:54:21.042Z,6.28
2019-03-05T04:59:25.070Z,6.33
2019-03-05T05:04:29.663Z,6.39
2019-03-05T05:09:33.701Z,6.42
2019-03-05T05:14:37.794Z,6.40
2019-03-05T05:19:41.831Z,6.41
2019-03-05T05:24:45.855Z,6.35
2019-03-05T05:29:49.865Z,6.34
2019-03-05T05:34:54.033Z,6.25
2019-03-05T05:40:23.189Z,6.21
2019-03-05T05:45:30.157Z,6.26
2019-03-05T05:50:34.218Z,6.22
2019-03-05T05:55:38.270Z,6.18
2019-03-05T06:00:42.569Z,6.13
2019-03-05T06:05:46.663Z,6.07
2019-03-05T06:10:52.904Z,5.97
2019-03-05T06:15:56.796Z,6.13
2019-03-05T06:21:00.887Z,6.08
2019-03-05T06:26:07.657Z,6.01
2019-03-05T06:31:11.103Z,6.01
2019-03-05T06:36:15.434Z,6.10
2019-03-05T06:41:19.501Z,6.15
2019-03-05T06:46:24.579Z,6.24
2019-03-05T06:51:29.776Z,6.42
2019-03-05T06:56:34.202Z,6.56
2019-03-05T07:01:38.650Z,6.56
2019-03-05T07:06:50.549Z,6.72
2019-03-05T07:12:05.364Z,6.80
2019-03-05T07:17:28.318Z,6.90
2019-03-05T07:23:04.389Z,6.84
2019-03-05T07:28:08.505Z,6.86
2019-03-05T07:33:12.837Z,7.09
2019-03-05T07:38:16.878Z,7.53
2019-03-05T07:43:20.887Z,7.80
2019-03-05T07:48:25.069Z,7.96
2019-03-05T07:53:32.202Z,8.19
2019-03-05T07:58:36.458Z,8.15
2019-03-05T08:03:42.199Z,7.92
2019-03-05T08:09:21.881Z,7.51
2019-03-05T08:14:52.191Z,7.57
2019-03-05T08:19:56.278Z,8.01
2019-03-05T08:25:00.374Z,7.95
2019-03-05T08:30:13.810Z,8.56
2019-03-05T08:35:11.228Z,8.40
2019-03-05T08:40:15.789Z,8.30
2019-03-05T08:45:28.779Z,8.49
2019-03-05T08:50:25.532Z,8.51
2019-03-05T08:55:29.577Z,8.86
2019-03-05T09:00:33.587Z,8.90
2019-03-05T09:05:37.648Z,8.19
2019-03-05T09:10:41.957Z,8.44
2019-03-05T09:15:46.054Z,8.24
2019-03-05T09:20:50.297Z,8.61
2019-03-05T09:25:54.361Z,8.69
2019-03-05T09:30:58.628Z,8.54
2019-03-05T09:36:02.928Z,8.68
2019-03-05T09:41:07.072Z,8.74
2019-03-05T09:46:11.120Z,8.77
2019-03-05T09:51:15.283Z,8.29
2019-03-05T09:56:19.336Z,8.30
2019-03-05T10:01:23.786Z,8.26
2019-03-05T10:06:28.111Z,8.49
2019-03-05T10:11:32.380Z,8.74
2019-03-05T10:16:37.059Z,9.14
2019-03-05T10:21:46.151Z,9.38
2019-03-05T10:26:46.988Z,9.44
2019-03-05T10:31:51.276Z,9.66
2019-03-05T10:36:55.608Z,10.86
2019-03-05T10:41:59.921Z,11.35
2019-03-05T10:47:03.919Z,11.80
2019-03-05T10:52:07.955Z,12.70
2019-03-05T10:57:13.685Z,11.94
2019-03-05T11:02:18.863Z,10.97
2019-03-05T11:07:22.887Z,10.30
2019-03-05T11:12:27.258Z,9.61
2019-03-05T11:17:33.157Z,9.68
2019-03-05T11:22:37.866Z,9.82
2019-03-05T11:27:41.923Z,9.77
2019-03-05T11:32:46.235Z,9.72
2019-03-05T11:37:50.365Z,9.90
2019-03-05T11:42:54.911Z,10.51
2019-03-05T11:47:59.236Z,10.20
2019-03-05T11:53:03.359Z,9.87
2019-03-05T11:58:07.348Z,9.14
2019-03-05T12:03:11.399Z,9.47
2019-03-05T12:08:15.445Z,10.38
2019-03-05T12:13:19.664Z,10.15
2019-03-05T12:18:25.466Z,9.85
2019-03-05T12:23:29.674Z,9.34
2019-03-05T12:28:34.321Z,9.25
2019-03-05T12:33:38.618Z,8.51
2019-03-05T12:38:42.764Z,8.72
2019-03-05T12:43:47.159Z,10.04
2019-03-05T12:48:51.317Z,10.80
2019-03-05T12:53:55.400Z,11.07
2019-03-05T12:59:02.254Z,11.19
2019-03-05T13:04:06.337Z,10.37
2019-03-05T13:09:19.108Z,10.15
2019-03-05T13:14:23.721Z,9.83
2019-03-05T13:19:27.796Z,9.02
2019-03-05T13:24:31.845Z,9.20
2019-03-05T13:29:35.965Z,9.73
2019-03-05T13:34:40.589Z,9.73
2019-03-05T13:39:44.735Z,9.10
2019-03-05T13:44:48.912Z,9.10
2019-03-05T13:50:24.347Z,8.84
2019-03-05T13:55:56.059Z,8.60
2019-03-05T14:01:00.255Z,7.84
2019-03-05T14:07:00.889Z,7.48
2019-03-05T14:12:05.053Z,7.30
2019-03-05T14:17:09.137Z,7.28
2019-03-05T14:22:13.271Z,7.31
2019-03-05T14:27:17.458Z,7.64
2019-03-05T14:32:21.521Z,7.83
2019-03-05T14:37:26.334Z,8.64
2019-03-05T14:42:30.810Z,8.87
2019-03-05T14:47:35.148Z,9.52
2019-03-05T14:52:39.251Z,9.61
2019-03-05T14:57:43.368Z,9.61
2019-03-05T15:02:47.461Z,9.22
2019-03-05T15:07:51.492Z,8.58
2019-03-05T15:12:56.140Z,7.97
2019-03-05T15:18:00.288Z,7.68
2019-03-05T15:23:06.479Z,7.69
2019-03-05T15:28:11.466Z,7.58
2019-03-05T15:33:19.586Z,7.62
2019-03-05T15:38:28.402Z,7.62
2019-03-05T15:43:35.167Z,7.50
2019-03-05T15:48:42.952Z,7.54
2019-03-05T15:53:51.798Z,7.73
2019-03-05T15:58:56.375Z,7.73
2019-03-05T16:04:04.333Z,7.56
2019-03-05T16:09:18.122Z,7.78
2019-03-05T16:14:29.637Z,7.80
2019-03-05T16:19:35.705Z,7.66
2019-03-05T16:24:43.568Z,7.32
2019-03-05T16:29:52.062Z,7.30
2019-03-05T16:34:57.568Z,7.29
2019-03-05T16:40:05.216Z,6.16
2019-03-05T16:45:11.799Z,5.11
2019-03-05T16:50:17.925Z,4.64
2019-03-05T16:55:23.886Z,4.65
2019-03-05T17:00:28.540Z,4.65
2019-03-05T17:05:32.862Z,4.70
2019-03-05T17:10:37.039Z,4.73
2019-03-05T17:15:41.146Z,4.71
2019-03-05T17:20:45.248Z,4.60
2019-03-05T17:25:49.540Z,4.60
2019-03-05T17:30:53.623Z,4.62
2019-03-05T17:35:57.710Z,4.49
2019-03-05T17:41:01.881Z,4.36
2019-03-05T17:46:06.146Z,4.27
2019-03-05T17:51:10.397Z,4.26
2019-03-05T17:56:15.325Z,4.14
2019-03-05T18:01:19.675Z,4.12
2019-03-05T18:06:24.145Z,3.99
2019-03-05T18:11:28.396Z,3.78
2019-03-05T18:16:32.655Z,3.69
2019-03-05T18:21:37.382Z,3.62
2019-03-05T18:26:45.607Z,3.84
2019-03-05T18:31:53.478Z,3.95
2019-03-05T18:37:01.561Z,3.89
2019-03-05T18:42:08.963Z,3.93
2019-03-05T18:47:21.004Z,3.89
2019-03-05T18:52:31.427Z,3.86
2019-03-05T18:57:47.453Z,3.85
2019-03-05T19:03:05.846Z,3.91
2019-03-05T19:08:28.222Z,4.03
2019-03-05T19:13:56.539Z,3.83
2019-03-05T19:19:16.727Z,3.63
2019-03-05T19:24:36.077Z,3.30
2019-03-05T19:29:54.782Z,3.02
2019-03-05T19:35:14.308Z,3.00
2019-03-05T19:40:24.265Z,3.00
2019-03-05T19:45:47.038Z,2.97
2019-03-05T19:50:53.197Z,2.73
2019-03-05T19:56:01.830Z,2.52
2019-03-05T20:01:07.330Z,2.50
2019-03-05T20:06:23.387Z,2.42
2019-03-05T20:11:40.167Z,2.39
2019-03-05T20:17:00.706Z,2.68
2019-03-05T20:22:21.067Z,2.88
2019-03-05T20:27:35.538Z,3.02
2019-03-05T20:32:45.497Z,3.25
2019-03-05T20:37:54.993Z,3.37
2019-03-05T20:43:01.632Z,3.43
2019-03-05T20:48:11.969Z,3.43
2019-03-05T20:53:18.744Z,3.13
2019-03-05T20:58:27.222Z,2.74
2019-03-05T21:03:34.157Z,2.48
2019-03-05T21:08:39.686Z,2.34
2019-03-05T21:13:44.548Z,2.44
2019-03-05T21:18:49.388Z,2.13
2019-03-05T21:23:53.827Z,2.13
2019-03-05T21:28:58.236Z,2.11
2019-03-05T21:34:02.452Z,2.03
2019-03-05T21:39:12.863Z,1.92
2019-03-05T21:44:16.937Z,1.73
2019-03-05T21:49:21.081Z,1.73
2019-03-05T21:54:25.171Z,1.81
2019-03-05T21:59:29.281Z,1.85
2019-03-05T22:04:33.319Z,1.77
2019-03-05T22:09:37.404Z,1.84
2019-03-05T22:14:41.709Z,1.76
2019-03-05T22:19:45.760Z,1.59
2019-03-05T22:24:50.262Z,1.56
2019-03-05T22:29:54.309Z,1.55
2019-03-05T22:34:58.343Z,1.53
2019-03-05T22:40:02.440Z,1.48
2019-03-05T22:45:08.374Z,1.47
2019-03-05T22:50:12.732Z,1.45
2019-03-05T22:55:17.242Z,1.48
2019-03-05T23:01:06.943Z,1.31
2019-03-05T23:06:11.290Z,1.22
2019-03-05T23:11:15.974Z,1.30
2019-03-05T23:16:20.330Z,1.36
2019-03-05T23:21:24.418Z,1.36
2019-03-05T23:26:28.640Z,1.41
2019-03-05T23:31:32.732Z,1.45
2019-03-05T23:36:37.088Z,1.48
2019-03-05T23:41:41.144Z,1.40
2019-03-05T23:46:45.428Z,1.32
2019-03-05T23:51:49.489Z,1.41
2019-03-05T23:56:53.542Z,1.65
